DAL1601 KATL-KJFK
Flight info
| Callsign | DAL1601 |
|---|---|
| Flight time | 1h 42m |
| Altitude | 37000 |
| Route | PHIIL3 HRTWL Q64 SAWED Q108 SIE CAMRN5 |
| Aircraft | A21N/M-SDE2E3FGHIRWXY/LB1 |
Departure
| Time | 2026-05-05 04:40 |
|---|---|
| Airport | Hartsfield Jackson Atlanta International Airport (KATL) |
Arrival
| Time | 2026-05-05 06:22 |
|---|---|
| Airport | John F. Kennedy International Airport (KJFK) |
| Time | Latitude | Longitude | Altitude | Speed | Heading |
|---|---|---|---|---|---|
| 2026-05-05 04:16 | 33.63752 | -84.43527 | 1009 ft | 0 kts | 301° |
| 2026-05-05 04:22 | 33.63752 | -84.43526 | 1009 ft | 0 kts | 301° |
| 2026-05-05 04:28 | 33.63751 | -84.43525 | 1009 ft | 2 kts | 301° |
| 2026-05-05 04:29 | 33.63742 | -84.43506 | 1009 ft | 3 kts | 301° |
| 2026-05-05 04:29 | 33.63734 | -84.43486 | 1009 ft | 3 kts | 259° |
| 2026-05-05 04:29 | 33.63744 | -84.43467 | 1009 ft | 2 kts | 210° |
| 2026-05-05 04:29 | 33.63746 | -84.43466 | 1009 ft | 0 kts | 209° |
| 2026-05-05 04:32 | 33.63744 | -84.43467 | 1009 ft | 4 kts | 207° |
| 2026-05-05 04:32 | 33.63703 | -84.43452 | 1009 ft | 11 kts | 151° |
| 2026-05-05 04:32 | 33.63665 | -84.43367 | 1009 ft | 13 kts | 94° |
| 2026-05-05 04:32 | 33.63665 | -84.43255 | 1009 ft | 15 kts | 91° |
| 2026-05-05 04:33 | 33.63663 | -84.43123 | 1009 ft | 16 kts | 91° |
| 2026-05-05 04:33 | 33.63661 | -84.42980 | 1009 ft | 18 kts | 90° |
| 2026-05-05 04:33 | 33.63662 | -84.42828 | 1009 ft | 19 kts | 89° |
| 2026-05-05 04:33 | 33.63655 | -84.42671 | 1010 ft | 18 kts | 91° |
| 2026-05-05 04:34 | 33.63656 | -84.42544 | 1010 ft | 14 kts | 90° |
| 2026-05-05 04:34 | 33.63655 | -84.42436 | 1010 ft | 14 kts | 90° |
| 2026-05-05 04:34 | 33.63654 | -84.42321 | 1010 ft | 15 kts | 90° |
| 2026-05-05 04:34 | 33.63655 | -84.42194 | 1010 ft | 16 kts | 89° |
| 2026-05-05 04:35 | 33.63655 | -84.42057 | 1010 ft | 17 kts | 90° |
| 2026-05-05 04:35 | 33.63655 | -84.41908 | 1009 ft | 19 kts | 90° |
| 2026-05-05 04:35 | 33.63654 | -84.41748 | 1009 ft | 20 kts | 89° |
| 2026-05-05 04:35 | 33.63655 | -84.41582 | 1009 ft | 21 kts | 89° |
| 2026-05-05 04:36 | 33.63655 | -84.41406 | 1009 ft | 21 kts | 91° |
| 2026-05-05 04:36 | 33.63655 | -84.41230 | 1009 ft | 18 kts | 89° |
| 2026-05-05 04:36 | 33.63655 | -84.41105 | 1009 ft | 15 kts | 90° |
| 2026-05-05 04:36 | 33.63655 | -84.40989 | 1009 ft | 14 kts | 90° |
| 2026-05-05 04:37 | 33.63635 | -84.40918 | 1009 ft | 6 kts | 141° |
| 2026-05-05 04:37 | 33.63599 | -84.40908 | 1009 ft | 5 kts | 178° |
| 2026-05-05 04:37 | 33.63589 | -84.40907 | 1009 ft | 0 kts | 179° |
| 2026-05-05 04:38 | 33.63563 | -84.40909 | 1009 ft | 9 kts | 184° |
| 2026-05-05 04:38 | 33.63494 | -84.40932 | 1010 ft | 11 kts | 219° |
| 2026-05-05 04:38 | 33.63471 | -84.40988 | 1010 ft | 0 kts | 266° |
| 2026-05-05 04:39 | 33.63471 | -84.40989 | 1010 ft | 3 kts | 267° |
| 2026-05-05 04:39 | 33.63470 | -84.41219 | 1008 ft | 56 kts | 270° |
| 2026-05-05 04:39 | 33.63470 | -84.41905 | 1010 ft | 109 kts | 270° |
| 2026-05-05 04:40 | 33.63470 | -84.43050 | 1009 ft | 163 kts | 270° |
| 2026-05-05 04:40 | 33.63479 | -84.44466 | 1349 ft | 170 kts | 269° |
| 2026-05-05 04:40 | 33.63457 | -84.45888 | 1835 ft | 172 kts | 264° |
| 2026-05-05 04:40 | 33.63270 | -84.47308 | 2294 ft | 172 kts | 251° |
| 2026-05-05 04:41 | 33.62907 | -84.48686 | 2743 ft | 177 kts | 246° |
| 2026-05-05 04:41 | 33.62397 | -84.50108 | 3050 ft | 193 kts | 241° |
| 2026-05-05 04:41 | 33.61747 | -84.51594 | 3367 ft | 210 kts | 238° |
| 2026-05-05 04:41 | 33.60997 | -84.53215 | 3560 ft | 236 kts | 239° |
| 2026-05-05 04:42 | 33.60190 | -84.55009 | 3875 ft | 257 kts | 240° |
| 2026-05-05 04:42 | 33.59254 | -84.56857 | 4561 ft | 259 kts | 228° |
| 2026-05-05 04:42 | 33.57831 | -84.58165 | 5385 ft | 257 kts | 201° |
| 2026-05-05 04:42 | 33.56092 | -84.58552 | 6117 ft | 262 kts | 184° |
| 2026-05-05 04:43 | 33.54238 | -84.58576 | 6760 ft | 270 kts | 180° |
| 2026-05-05 04:43 | 33.52349 | -84.58537 | 7488 ft | 273 kts | 180° |
| 2026-05-05 04:43 | 33.50438 | -84.58496 | 8251 ft | 277 kts | 179° |
| 2026-05-05 04:43 | 33.48527 | -84.58114 | 9012 ft | 282 kts | 161° |
| 2026-05-05 04:44 | 33.46863 | -84.56856 | 9771 ft | 289 kts | 134° |
| 2026-05-05 04:44 | 33.45819 | -84.54771 | 10327 ft | 303 kts | 107° |
| 2026-05-05 04:44 | 33.45538 | -84.52188 | 10619 ft | 324 kts | 92° |
| 2026-05-05 04:44 | 33.45539 | -84.49413 | 10909 ft | 343 kts | 90° |
| 2026-05-05 04:45 | 33.45572 | -84.46475 | 11199 ft | 361 kts | 90° |
| 2026-05-05 04:45 | 33.45592 | -84.43411 | 11466 ft | 378 kts | 91° |
| 2026-05-05 04:45 | 33.45596 | -84.40202 | 11772 ft | 391 kts | 91° |
| 2026-05-05 04:45 | 33.45589 | -84.36918 | 12281 ft | 397 kts | 91° |
| 2026-05-05 04:46 | 33.45746 | -84.33597 | 12800 ft | 403 kts | 81° |
| 2026-05-05 04:46 | 33.46393 | -84.30306 | 13346 ft | 408 kts | 74° |
| 2026-05-05 04:46 | 33.47211 | -84.27039 | 13894 ft | 412 kts | 73° |
| 2026-05-05 04:46 | 33.48062 | -84.23744 | 14390 ft | 415 kts | 73° |
| 2026-05-05 04:47 | 33.48918 | -84.20421 | 14881 ft | 419 kts | 73° |
| 2026-05-05 04:47 | 33.49775 | -84.17069 | 15367 ft | 422 kts | 73° |
| 2026-05-05 04:47 | 33.50633 | -84.13693 | 15848 ft | 426 kts | 73° |
| 2026-05-05 04:47 | 33.51485 | -84.10331 | 16328 ft | 429 kts | 73° |
| 2026-05-05 04:48 | 33.52353 | -84.06894 | 16791 ft | 432 kts | 73° |
| 2026-05-05 04:48 | 33.53226 | -84.03430 | 17291 ft | 436 kts | 73° |
| 2026-05-05 04:48 | 33.54096 | -83.99937 | 17777 ft | 439 kts | 73° |
| 2026-05-05 04:48 | 33.54963 | -83.96415 | 18254 ft | 442 kts | 73° |
| 2026-05-05 04:49 | 33.55833 | -83.92865 | 18662 ft | 446 kts | 73° |
| 2026-05-05 04:49 | 33.56709 | -83.89290 | 19057 ft | 449 kts | 73° |
| 2026-05-05 04:49 | 33.57591 | -83.85690 | 19468 ft | 452 kts | 73° |
| 2026-05-05 04:49 | 33.58177 | -83.83294 | 19740 ft | 454 kts | 73° |
| 2026-05-05 04:50 | 33.59362 | -83.78444 | 20283 ft | 457 kts | 73° |
| 2026-05-05 04:50 | 33.60261 | -83.74762 | 20683 ft | 460 kts | 73° |
| 2026-05-05 04:50 | 33.60870 | -83.72265 | 20946 ft | 462 kts | 73° |
| 2026-05-05 04:50 | 33.61773 | -83.68554 | 21340 ft | 465 kts | 73° |
| 2026-05-05 04:51 | 33.62670 | -83.64867 | 21721 ft | 468 kts | 73° |
| 2026-05-05 04:51 | 33.63583 | -83.61105 | 22096 ft | 471 kts | 73° |
| 2026-05-05 04:51 | 33.64499 | -83.57326 | 22460 ft | 473 kts | 73° |
| 2026-05-05 04:51 | 33.65421 | -83.53518 | 22820 ft | 476 kts | 73° |
| 2026-05-05 04:52 | 33.66346 | -83.49693 | 23223 ft | 478 kts | 73° |
| 2026-05-05 04:52 | 33.67272 | -83.45857 | 23593 ft | 480 kts | 73° |
| 2026-05-05 04:52 | 33.68203 | -83.41992 | 23900 ft | 483 kts | 73° |
| 2026-05-05 04:52 | 33.69139 | -83.38101 | 24196 ft | 485 kts | 73° |
| 2026-05-05 04:53 | 33.70078 | -83.34195 | 24511 ft | 488 kts | 73° |
| 2026-05-05 04:53 | 33.71020 | -83.30268 | 24822 ft | 490 kts | 73° |
| 2026-05-05 04:53 | 33.71965 | -83.26323 | 25131 ft | 492 kts | 73° |
| 2026-05-05 04:53 | 33.72913 | -83.22361 | 25445 ft | 494 kts | 73° |
| 2026-05-05 04:54 | 33.73861 | -83.18402 | 25884 ft | 493 kts | 72° |
| 2026-05-05 04:54 | 33.75011 | -83.14533 | 26298 ft | 490 kts | 64° |
| 2026-05-05 04:54 | 33.76582 | -83.10958 | 26718 ft | 488 kts | 58° |
| 2026-05-05 04:54 | 33.78343 | -83.07488 | 27169 ft | 485 kts | 56° |
| 2026-05-05 04:55 | 33.80130 | -83.04048 | 27562 ft | 484 kts | 56° |
| 2026-05-05 04:55 | 33.81914 | -83.00619 | 27931 ft | 484 kts | 56° |
| 2026-05-05 04:55 | 33.83694 | -82.97187 | 28304 ft | 483 kts | 56° |
| 2026-05-05 04:55 | 33.85467 | -82.93759 | 28666 ft | 483 kts | 56° |
| 2026-05-05 04:56 | 33.87240 | -82.90325 | 29038 ft | 482 kts | 56° |
| 2026-05-05 04:56 | 33.89005 | -82.86900 | 29402 ft | 482 kts | 56° |
| 2026-05-05 04:56 | 33.90769 | -82.83473 | 29758 ft | 481 kts | 56° |
| 2026-05-05 04:56 | 33.92531 | -82.80044 | 30101 ft | 481 kts | 56° |
| 2026-05-05 04:57 | 33.94291 | -82.76618 | 30387 ft | 480 kts | 56° |
| 2026-05-05 04:57 | 33.96047 | -82.73196 | 30627 ft | 481 kts | 56° |
| 2026-05-05 04:57 | 33.97809 | -82.69759 | 30788 ft | 483 kts | 56° |
| 2026-05-05 04:58 | 34.01350 | -82.62791 | 30972 ft | 492 kts | 56° |
| 2026-05-05 04:58 | 34.04910 | -82.55749 | 31161 ft | 499 kts | 56° |
| 2026-05-05 04:58 | 34.06738 | -82.52126 | 31348 ft | 500 kts | 56° |
| 2026-05-05 04:59 | 34.08545 | -82.48541 | 31587 ft | 499 kts | 56° |
| 2026-05-05 04:59 | 34.10322 | -82.45013 | 31828 ft | 499 kts | 56° |
| 2026-05-05 04:59 | 34.12128 | -82.41424 | 32073 ft | 498 kts | 56° |
| 2026-05-05 04:59 | 34.13926 | -82.37848 | 32301 ft | 498 kts | 56° |
| 2026-05-05 05:00 | 34.15724 | -82.34270 | 32482 ft | 499 kts | 56° |
| 2026-05-05 05:00 | 34.17522 | -82.30685 | 32731 ft | 498 kts | 56° |
| 2026-05-05 05:00 | 34.19317 | -82.27105 | 32953 ft | 498 kts | 56° |
| 2026-05-05 05:00 | 34.21110 | -82.23524 | 33171 ft | 497 kts | 56° |
| 2026-05-05 05:01 | 34.22897 | -82.19952 | 33419 ft | 496 kts | 56° |
| 2026-05-05 05:01 | 34.24683 | -82.16380 | 33628 ft | 496 kts | 56° |
| 2026-05-05 05:01 | 34.26471 | -82.12813 | 33833 ft | 495 kts | 56° |
| 2026-05-05 05:01 | 34.28259 | -82.09261 | 34035 ft | 495 kts | 56° |
| 2026-05-05 05:02 | 34.30048 | -82.05707 | 34208 ft | 494 kts | 56° |
| 2026-05-05 05:02 | 34.31834 | -82.02161 | 34360 ft | 494 kts | 55° |
| 2026-05-05 05:02 | 34.33619 | -81.98613 | 34504 ft | 494 kts | 55° |
| 2026-05-05 05:02 | 34.35402 | -81.95064 | 34637 ft | 494 kts | 55° |
| 2026-05-05 05:03 | 34.37184 | -81.91513 | 34761 ft | 494 kts | 55° |
| 2026-05-05 05:03 | 34.38940 | -81.88008 | 34906 ft | 494 kts | 55° |
| 2026-05-05 05:03 | 34.40719 | -81.84454 | 35030 ft | 494 kts | 55° |
| 2026-05-05 05:04 | 34.44276 | -81.77334 | 35094 ft | 494 kts | 55° |
| 2026-05-05 05:04 | 34.47831 | -81.70205 | 35069 ft | 493 kts | 55° |
| 2026-05-05 05:05 | 34.51377 | -81.63080 | 35069 ft | 493 kts | 56° |
| 2026-05-05 05:05 | 34.54919 | -81.55946 | 35061 ft | 494 kts | 56° |
| 2026-05-05 05:06 | 34.58459 | -81.48804 | 35064 ft | 494 kts | 56° |
| 2026-05-05 05:06 | 34.61994 | -81.41656 | 35070 ft | 494 kts | 56° |
| 2026-05-05 05:07 | 34.65524 | -81.34504 | 35074 ft | 494 kts | 56° |
| 2026-05-05 05:07 | 34.69054 | -81.27339 | 35087 ft | 494 kts | 56° |
| 2026-05-05 05:08 | 34.72576 | -81.20173 | 35082 ft | 494 kts | 56° |
| 2026-05-05 05:08 | 34.76090 | -81.13012 | 35082 ft | 493 kts | 56° |
| 2026-05-05 05:09 | 34.79537 | -81.05777 | 35078 ft | 495 kts | 62° |
| 2026-05-05 05:09 | 34.82460 | -80.98241 | 35077 ft | 496 kts | 63° |
| 2026-05-05 05:10 | 34.85293 | -80.90589 | 35084 ft | 496 kts | 64° |
| 2026-05-05 05:10 | 34.88099 | -80.82920 | 35079 ft | 496 kts | 64° |
| 2026-05-05 05:11 | 34.90908 | -80.75242 | 35081 ft | 496 kts | 64° |
| 2026-05-05 05:11 | 34.93718 | -80.67570 | 35073 ft | 496 kts | 64° |
| 2026-05-05 05:12 | 34.96508 | -80.59940 | 35063 ft | 496 kts | 64° |
| 2026-05-05 05:12 | 34.99309 | -80.52259 | 35065 ft | 496 kts | 64° |
| 2026-05-05 05:13 | 35.02110 | -80.44563 | 35065 ft | 497 kts | 64° |
| 2026-05-05 05:13 | 35.04906 | -80.36859 | 35063 ft | 496 kts | 64° |
| 2026-05-05 05:14 | 35.07696 | -80.29155 | 35077 ft | 496 kts | 64° |
| 2026-05-05 05:14 | 35.10484 | -80.21436 | 35077 ft | 496 kts | 64° |
| 2026-05-05 05:15 | 35.13271 | -80.13701 | 35081 ft | 499 kts | 64° |
| 2026-05-05 05:15 | 35.16047 | -80.05980 | 35072 ft | 500 kts | 64° |
| 2026-05-05 05:16 | 35.18838 | -79.98197 | 35071 ft | 500 kts | 64° |
| 2026-05-05 05:16 | 35.21627 | -79.90414 | 35069 ft | 500 kts | 64° |
| 2026-05-05 05:17 | 35.24414 | -79.82623 | 35056 ft | 500 kts | 64° |
| 2026-05-05 05:17 | 35.27197 | -79.74822 | 35049 ft | 501 kts | 64° |
| 2026-05-05 05:18 | 35.29979 | -79.67005 | 35068 ft | 501 kts | 64° |
| 2026-05-05 05:18 | 35.32762 | -79.59167 | 35076 ft | 502 kts | 64° |
| 2026-05-05 05:19 | 35.35542 | -79.51314 | 35086 ft | 502 kts | 64° |
| 2026-05-05 05:19 | 35.38316 | -79.43462 | 35088 ft | 502 kts | 64° |
| 2026-05-05 05:20 | 35.41092 | -79.35583 | 35238 ft | 504 kts | 64° |
| 2026-05-05 05:20 | 35.42477 | -79.31641 | 35395 ft | 503 kts | 64° |
| 2026-05-05 05:20 | 35.43861 | -79.27701 | 35535 ft | 502 kts | 64° |
| 2026-05-05 05:20 | 35.45222 | -79.23819 | 35669 ft | 502 kts | 64° |
| 2026-05-05 05:21 | 35.46599 | -79.19889 | 35799 ft | 501 kts | 64° |
| 2026-05-05 05:21 | 35.47973 | -79.15960 | 35916 ft | 501 kts | 64° |
| 2026-05-05 05:21 | 35.49346 | -79.12033 | 36038 ft | 500 kts | 64° |
| 2026-05-05 05:21 | 35.50715 | -79.08109 | 36150 ft | 500 kts | 64° |
| 2026-05-05 05:22 | 35.52084 | -79.04181 | 36258 ft | 500 kts | 64° |
| 2026-05-05 05:22 | 35.54816 | -78.96328 | 36453 ft | 500 kts | 64° |
| 2026-05-05 05:22 | 35.56180 | -78.92400 | 36565 ft | 499 kts | 64° |
| 2026-05-05 05:23 | 35.57540 | -78.88479 | 36670 ft | 499 kts | 64° |
| 2026-05-05 05:23 | 35.60258 | -78.80623 | 36856 ft | 498 kts | 64° |
| 2026-05-05 05:24 | 35.62948 | -78.72827 | 37026 ft | 498 kts | 64° |
| 2026-05-05 05:24 | 35.65650 | -78.64975 | 37065 ft | 499 kts | 65° |
| 2026-05-05 05:25 | 35.68349 | -78.57108 | 37070 ft | 499 kts | 65° |
| 2026-05-05 05:25 | 35.71040 | -78.49244 | 37074 ft | 498 kts | 65° |
| 2026-05-05 05:26 | 35.73723 | -78.41382 | 37072 ft | 497 kts | 65° |
| 2026-05-05 05:26 | 35.76398 | -78.33534 | 37070 ft | 497 kts | 65° |
| 2026-05-05 05:27 | 35.79070 | -78.25679 | 37064 ft | 497 kts | 65° |
| 2026-05-05 05:27 | 35.83064 | -78.13894 | 37072 ft | 497 kts | 65° |
| 2026-05-05 05:28 | 35.85704 | -78.06080 | 37078 ft | 497 kts | 65° |
| 2026-05-05 05:28 | 35.88354 | -77.98214 | 37062 ft | 497 kts | 65° |
| 2026-05-05 05:29 | 35.91001 | -77.90339 | 37062 ft | 497 kts | 65° |
| 2026-05-05 05:29 | 35.93643 | -77.82458 | 37056 ft | 497 kts | 65° |
| 2026-05-05 05:30 | 35.96288 | -77.74584 | 37068 ft | 496 kts | 62° |
| 2026-05-05 05:30 | 35.99966 | -77.67479 | 37074 ft | 488 kts | 47° |
| 2026-05-05 05:31 | 36.04436 | -77.61178 | 37072 ft | 487 kts | 44° |
| 2026-05-05 05:31 | 36.09021 | -77.55075 | 37070 ft | 488 kts | 43° |
| 2026-05-05 05:32 | 36.13647 | -77.48932 | 37070 ft | 488 kts | 43° |
| 2026-05-05 05:32 | 36.18257 | -77.42752 | 37056 ft | 488 kts | 44° |
| 2026-05-05 05:33 | 36.22849 | -77.36557 | 37075 ft | 488 kts | 44° |
| 2026-05-05 05:33 | 36.27435 | -77.30354 | 37081 ft | 488 kts | 44° |
| 2026-05-05 05:34 | 36.32125 | -77.24280 | 37091 ft | 486 kts | 39° |
| 2026-05-05 05:34 | 36.37091 | -77.18594 | 37081 ft | 485 kts | 38° |
| 2026-05-05 05:35 | 36.42111 | -77.12978 | 37075 ft | 486 kts | 38° |
| 2026-05-05 05:35 | 36.47105 | -77.07401 | 37069 ft | 486 kts | 38° |
| 2026-05-05 05:36 | 36.52123 | -77.01776 | 37066 ft | 486 kts | 38° |
| 2026-05-05 05:36 | 36.57129 | -76.96146 | 37053 ft | 485 kts | 38° |
| 2026-05-05 05:37 | 36.62124 | -76.90514 | 37057 ft | 484 kts | 38° |
| 2026-05-05 05:37 | 36.67118 | -76.84874 | 37060 ft | 484 kts | 38° |
| 2026-05-05 05:38 | 36.72114 | -76.79222 | 37072 ft | 485 kts | 38° |
| 2026-05-05 05:38 | 36.77113 | -76.73556 | 37066 ft | 485 kts | 38° |
| 2026-05-05 05:39 | 36.82094 | -76.67899 | 37064 ft | 484 kts | 38° |
| 2026-05-05 05:39 | 36.87070 | -76.62238 | 37057 ft | 484 kts | 38° |
| 2026-05-05 05:40 | 36.92010 | -76.56608 | 37056 ft | 484 kts | 38° |
| 2026-05-05 05:40 | 36.96986 | -76.50928 | 37037 ft | 484 kts | 39° |
| 2026-05-05 05:41 | 37.01946 | -76.45253 | 37027 ft | 484 kts | 38° |
| 2026-05-05 05:41 | 37.06909 | -76.39566 | 37026 ft | 484 kts | 38° |
| 2026-05-05 05:42 | 37.11871 | -76.33869 | 37027 ft | 484 kts | 38° |
| 2026-05-05 05:42 | 37.15997 | -76.29124 | 37046 ft | 484 kts | 39° |
| 2026-05-05 05:43 | 37.20949 | -76.23418 | 37026 ft | 483 kts | 39° |
| 2026-05-05 05:43 | 37.26695 | -76.16784 | 37028 ft | 483 kts | 39° |
| 2026-05-05 05:44 | 37.30834 | -76.11998 | 37022 ft | 483 kts | 39° |
| 2026-05-05 05:44 | 37.35775 | -76.06274 | 37026 ft | 483 kts | 39° |
| 2026-05-05 05:45 | 37.40677 | -76.00584 | 37020 ft | 482 kts | 39° |
| 2026-05-05 05:45 | 37.45595 | -75.94864 | 37015 ft | 481 kts | 39° |
| 2026-05-05 05:46 | 37.50519 | -75.89129 | 37019 ft | 481 kts | 39° |
| 2026-05-05 05:46 | 37.55809 | -75.84065 | 37021 ft | 475 kts | 28° |
| 2026-05-05 05:47 | 37.61395 | -75.79727 | 37017 ft | 475 kts | 26° |
| 2026-05-05 05:47 | 37.67072 | -75.75492 | 37017 ft | 474 kts | 26° |
| 2026-05-05 05:48 | 37.72753 | -75.71261 | 37017 ft | 473 kts | 26° |
| 2026-05-05 05:48 | 37.78414 | -75.67016 | 37021 ft | 473 kts | 27° |
| 2026-05-05 05:49 | 37.84070 | -75.62742 | 37013 ft | 474 kts | 28° |
| 2026-05-05 05:49 | 37.89592 | -75.58129 | 37016 ft | 476 kts | 31° |
| 2026-05-05 05:50 | 37.95033 | -75.53319 | 37021 ft | 476 kts | 31° |
| 2026-05-05 05:50 | 38.00432 | -75.48544 | 37004 ft | 476 kts | 31° |
| 2026-05-05 05:51 | 38.05896 | -75.43771 | 36995 ft | 477 kts | 30° |
| 2026-05-05 05:51 | 38.11469 | -75.39172 | 36996 ft | 477 kts | 28° |
| 2026-05-05 05:52 | 38.17070 | -75.34648 | 36998 ft | 477 kts | 28° |
| 2026-05-05 05:52 | 38.22714 | -75.30199 | 37003 ft | 475 kts | 23° |
| 2026-05-05 05:53 | 38.28849 | -75.27447 | 37009 ft | 465 kts | 8° |
| 2026-05-05 05:53 | 38.35203 | -75.25905 | 37007 ft | 464 kts | 5° |
| 2026-05-05 05:54 | 38.41581 | -75.24600 | 37025 ft | 464 kts | 5° |
| 2026-05-05 05:54 | 38.47959 | -75.23310 | 36999 ft | 463 kts | 5° |
| 2026-05-05 05:55 | 38.54275 | -75.22002 | 36996 ft | 463 kts | 6° |
| 2026-05-05 05:55 | 38.60629 | -75.20669 | 36988 ft | 463 kts | 6° |
| 2026-05-05 05:56 | 38.66973 | -75.19200 | 36976 ft | 465 kts | 12° |
| 2026-05-05 05:56 | 38.72924 | -75.15884 | 36978 ft | 472 kts | 31° |
| 2026-05-05 05:57 | 38.78245 | -75.10908 | 36977 ft | 475 kts | 34° |
| 2026-05-05 05:57 | 38.83495 | -75.05755 | 36981 ft | 475 kts | 34° |
| 2026-05-05 05:58 | 38.88745 | -75.00590 | 36975 ft | 476 kts | 34° |
| 2026-05-05 05:58 | 38.93967 | -74.95448 | 36974 ft | 476 kts | 34° |
| 2026-05-05 05:59 | 38.99221 | -74.90265 | 36985 ft | 476 kts | 34° |
| 2026-05-05 05:59 | 39.04473 | -74.85074 | 36986 ft | 476 kts | 34° |
| 2026-05-05 06:00 | 39.09715 | -74.79859 | 36977 ft | 476 kts | 36° |
| 2026-05-05 06:00 | 39.14818 | -74.74396 | 36973 ft | 477 kts | 37° |
| 2026-05-05 06:01 | 39.19894 | -74.68896 | 36965 ft | 477 kts | 37° |
| 2026-05-05 06:01 | 39.24975 | -74.63391 | 36977 ft | 477 kts | 37° |
| 2026-05-05 06:02 | 39.30025 | -74.57912 | 36257 ft | 473 kts | 37° |
| 2026-05-05 06:02 | 39.32551 | -74.55171 | 35389 ft | 476 kts | 38° |
| 2026-05-05 06:02 | 39.35094 | -74.52408 | 34591 ft | 478 kts | 38° |
| 2026-05-05 06:03 | 39.37639 | -74.49639 | 33867 ft | 477 kts | 38° |
| 2026-05-05 06:03 | 39.40177 | -74.46875 | 33080 ft | 476 kts | 38° |
| 2026-05-05 06:03 | 39.42703 | -74.44123 | 32369 ft | 474 kts | 39° |
| 2026-05-05 06:03 | 39.45211 | -74.41388 | 31839 ft | 468 kts | 39° |
| 2026-05-05 06:04 | 39.47673 | -74.38699 | 30933 ft | 470 kts | 39° |
| 2026-05-05 06:04 | 39.50185 | -74.35952 | 29922 ft | 476 kts | 39° |
| 2026-05-05 06:04 | 39.52711 | -74.33186 | 29119 ft | 474 kts | 39° |
| 2026-05-05 06:04 | 39.55218 | -74.30437 | 28374 ft | 470 kts | 39° |
| 2026-05-05 06:05 | 39.57700 | -74.27712 | 27714 ft | 466 kts | 39° |
| 2026-05-05 06:05 | 39.60163 | -74.25007 | 27091 ft | 461 kts | 39° |
| 2026-05-05 06:05 | 39.62615 | -74.22314 | 26149 ft | 464 kts | 39° |
| 2026-05-05 06:05 | 39.65086 | -74.19597 | 25274 ft | 466 kts | 39° |
| 2026-05-05 06:06 | 39.67548 | -74.16888 | 24556 ft | 464 kts | 39° |
| 2026-05-05 06:06 | 39.70003 | -74.14183 | 23918 ft | 460 kts | 39° |
| 2026-05-05 06:06 | 39.72479 | -74.11559 | 23209 ft | 457 kts | 35° |
| 2026-05-05 06:06 | 39.75067 | -74.09194 | 22460 ft | 453 kts | 33° |
| 2026-05-05 06:07 | 39.77634 | -74.06937 | 21767 ft | 449 kts | 33° |
| 2026-05-05 06:07 | 39.80223 | -74.04689 | 21097 ft | 445 kts | 32° |
| 2026-05-05 06:07 | 39.82786 | -74.02473 | 20404 ft | 441 kts | 32° |
| 2026-05-05 06:07 | 39.85335 | -74.00274 | 19710 ft | 438 kts | 32° |
| 2026-05-05 06:08 | 39.87873 | -73.98085 | 18867 ft | 439 kts | 32° |
| 2026-05-05 06:08 | 39.90440 | -73.95871 | 17648 ft | 447 kts | 32° |
| 2026-05-05 06:08 | 39.93051 | -73.93619 | 16462 ft | 453 kts | 32° |
| 2026-05-05 06:08 | 39.95676 | -73.91351 | 15596 ft | 450 kts | 32° |
| 2026-05-05 06:09 | 39.98269 | -73.89109 | 14793 ft | 444 kts | 31° |
| 2026-05-05 06:09 | 40.00869 | -73.86994 | 14041 ft | 437 kts | 25° |
| 2026-05-05 06:09 | 40.03579 | -73.85217 | 13205 ft | 432 kts | 25° |
| 2026-05-05 06:09 | 40.06194 | -73.83321 | 12359 ft | 428 kts | 27° |
| 2026-05-05 06:10 | 40.08759 | -73.81395 | 11547 ft | 423 kts | 27° |
| 2026-05-05 06:10 | 40.11262 | -73.79506 | 10768 ft | 418 kts | 27° |
| 2026-05-05 06:10 | 40.13761 | -73.77616 | 9993 ft | 413 kts | 27° |
| 2026-05-05 06:10 | 40.16235 | -73.75745 | 9133 ft | 408 kts | 27° |
| 2026-05-05 06:11 | 40.18685 | -73.73895 | 8241 ft | 405 kts | 27° |
| 2026-05-05 06:11 | 40.21059 | -73.72106 | 7394 ft | 401 kts | 27° |
| 2026-05-05 06:11 | 40.23400 | -73.70345 | 6634 ft | 397 kts | 27° |
| 2026-05-05 06:11 | 40.25787 | -73.68559 | 6168 ft | 394 kts | 26° |
| 2026-05-05 06:12 | 40.28246 | -73.66973 | 6002 ft | 394 kts | 20° |
| 2026-05-05 06:12 | 40.30773 | -73.65663 | 5698 ft | 387 kts | 18° |
| 2026-05-05 06:12 | 40.33284 | -73.64425 | 4863 ft | 386 kts | 17° |
| 2026-05-05 06:12 | 40.35800 | -73.63188 | 4270 ft | 388 kts | 17° |
| 2026-05-05 06:13 | 40.38362 | -73.62052 | 4022 ft | 388 kts | 13° |
| 2026-05-05 06:13 | 40.40975 | -73.61164 | 3991 ft | 388 kts | 8° |
| 2026-05-05 06:13 | 40.43613 | -73.60448 | 3989 ft | 387 kts | 7° |
| 2026-05-05 06:13 | 40.46257 | -73.59759 | 3985 ft | 387 kts | 7° |
| 2026-05-05 06:14 | 40.48876 | -73.59073 | 3690 ft | 381 kts | 7° |
| 2026-05-05 06:14 | 40.51444 | -73.58397 | 3176 ft | 369 kts | 7° |
| 2026-05-05 06:14 | 40.53871 | -73.57749 | 2991 ft | 339 kts | 7° |
| 2026-05-05 06:14 | 40.56059 | -73.57145 | 2969 ft | 305 kts | 7° |
| 2026-05-05 06:15 | 40.58057 | -73.56572 | 2975 ft | 287 kts | 7° |
| 2026-05-05 06:15 | 40.60000 | -73.56001 | 2879 ft | 285 kts | 7° |
| 2026-05-05 06:15 | 40.61943 | -73.55446 | 2459 ft | 285 kts | 7° |
| 2026-05-05 06:15 | 40.63883 | -73.54898 | 2080 ft | 284 kts | 7° |
| 2026-05-05 06:16 | 40.65820 | -73.54355 | 1998 ft | 285 kts | 7° |
| 2026-05-05 06:16 | 40.67753 | -73.53814 | 1979 ft | 278 kts | 7° |
| 2026-05-05 06:16 | 40.69601 | -73.53459 | 1976 ft | 259 kts | 349° |
| 2026-05-05 06:16 | 40.71229 | -73.54094 | 2016 ft | 241 kts | 320° |
| 2026-05-05 06:17 | 40.72401 | -73.55548 | 1998 ft | 227 kts | 298° |
| 2026-05-05 06:17 | 40.73179 | -73.57323 | 1991 ft | 222 kts | 289° |
| 2026-05-05 06:17 | 40.73829 | -73.59170 | 1986 ft | 222 kts | 287° |
| 2026-05-05 06:17 | 40.74458 | -73.60988 | 1976 ft | 210 kts | 287° |
| 2026-05-05 06:18 | 40.75054 | -73.62656 | 1959 ft | 191 kts | 287° |
| 2026-05-05 06:18 | 40.75496 | -73.64215 | 1969 ft | 176 kts | 274° |
| 2026-05-05 06:18 | 40.75504 | -73.65764 | 1971 ft | 163 kts | 242° |
| 2026-05-05 06:18 | 40.74856 | -73.66944 | 1984 ft | 160 kts | 228° |
| 2026-05-05 06:19 | 40.74027 | -73.67945 | 1980 ft | 163 kts | 218° |
| 2026-05-05 06:19 | 40.73071 | -73.68764 | 1970 ft | 164 kts | 215° |
| 2026-05-05 06:19 | 40.72110 | -73.69533 | 1786 ft | 158 kts | 214° |
| 2026-05-05 06:19 | 40.71206 | -73.70238 | 1623 ft | 143 kts | 214° |
| 2026-05-05 06:20 | 40.70400 | -73.70873 | 1380 ft | 127 kts | 215° |
| 2026-05-05 06:20 | 40.69667 | -73.71452 | 1210 ft | 122 kts | 214° |
| 2026-05-05 06:20 | 40.68942 | -73.72024 | 1058 ft | 124 kts | 212° |
| 2026-05-05 06:20 | 40.68179 | -73.72622 | 883 ft | 129 kts | 212° |
| 2026-05-05 06:21 | 40.67403 | -73.73231 | 703 ft | 134 kts | 210° |
| 2026-05-05 06:21 | 40.66596 | -73.73863 | 527 ft | 136 kts | 210° |
| 2026-05-05 06:21 | 40.65777 | -73.74504 | 371 ft | 138 kts | 209° |
| 2026-05-05 06:21 | 40.64955 | -73.75148 | 177 ft | 138 kts | 210° |
| 2026-05-05 06:22 | 40.64154 | -73.75767 | 31 ft | 126 kts | 208° |
| 2026-05-05 06:22 | 40.63492 | -73.76287 | 27 ft | 93 kts | 211° |
| 2026-05-05 06:22 | 40.63110 | -73.76601 | 23 ft | 51 kts | 218° |
| 2026-05-05 06:22 | 40.62939 | -73.76884 | 24 ft | 22 kts | 251° |
| 2026-05-05 06:23 | 40.62955 | -73.77023 | 26 ft | 16 kts | 299° |
| 2026-05-05 06:23 | 40.63016 | -73.77161 | 24 ft | 19 kts | 301° |
| 2026-05-05 06:23 | 40.63095 | -73.77335 | 26 ft | 23 kts | 301° |
| 2026-05-05 06:23 | 40.63180 | -73.77516 | 29 ft | 23 kts | 301° |
| 2026-05-05 06:24 | 40.63262 | -73.77701 | 27 ft | 23 kts | 300° |
| 2026-05-05 06:24 | 40.63344 | -73.77879 | 29 ft | 19 kts | 309° |
| 2026-05-05 06:24 | 40.63452 | -73.77873 | 24 ft | 19 kts | 30° |
| 2026-05-05 06:24 | 40.63566 | -73.77854 | 24 ft | 18 kts | 323° |
| 2026-05-05 06:25 | 40.63687 | -73.77901 | 23 ft | 19 kts | 353° |
| 2026-05-05 06:25 | 40.63829 | -73.77923 | 25 ft | 22 kts | 353° |
| 2026-05-05 06:25 | 40.63945 | -73.77951 | 26 ft | 10 kts | 331° |
| 2026-05-05 06:25 | 40.63959 | -73.78019 | 25 ft | 7 kts | 261° |
| 2026-05-05 06:26 | 40.63955 | -73.78059 | 27 ft | 1 kts | 263° |
| 2026-05-05 06:26 | 40.63954 | -73.78063 | 27 ft | 0 kts | 263° |